Portada
METAR-TAF:

METAR-TAF

Aeroports :

Columbus, Indiana, Estats Units d'Amèrica

latitud: 39-16N, longitud: 085-54W, altitud: 200 m

Observació

L'informe es va fer fa 33 minuts, a les 00:45 UTC
Vent 5 kt del Oest/Nord-Oest
Temperatura 18°C
Humitat 59%
Pressió 1013 hPa
Visibilitat: 16.1 km
Cel clar

METAR: KBAK 180045Z 29005KT 10SM CLR 18/10 A2991

Hora: 21:18 (01:18 UTC)


TAF: manca

Observacions i pronòstics meteorològics de més de 4000 aeroports (METAR i TAF).

Les estacions disponibles són els punts grocs i vermells al mapa.

Posi el ratolí al punt desitjat per veure el nom de l'estació.

Feu clic per veure les observacions i els pronòstics meteorològics.

Per canviar el mapa: feu clic els botons verds amb una creu de color negre per apropar; al botó verd amb un guió per allunyar la imatge; o en les fletxes verdes per a mapes adjacents.


METAR-TAF: